Time;durP1;ratioP1;P1;durP2;ratioP2;P2;SDS_P1;SDS_P2;PMS_P1;PMS_P2;Temp;Humidity;BMP_temperature;BMP_pressure;BME280_temperature;BME280_humidity;BME280_pressure;Samples;Min_cycle;Max_cycle;Signal;HPM_P1;HPM_P2
2023/10/20 00:01:32;;;;;;;10.02;8.02;;;;;;;;;;5059063;28;20028;-79
2023/10/20 00:03:57;;;;;;;12.57;8.50;;;;;;;;;;5045033;28;20028;-80
2023/10/20 00:06:22;;;;;;;12.48;8.65;;;;;;;;;;5045441;28;20028;-79
2023/10/20 00:08:47;;;;;;;11.45;8.27;;;;;;;;;;5044698;28;20021;-78
2023/10/20 00:11:13;;;;;;;11.40;8.13;;;;;;;;;;5061000;28;20036;-79
2023/10/20 00:13:38;;;;;;;12.75;8.57;;;;;;;;;;5060124;28;20027;-78
2023/10/20 00:16:04;;;;;;;10.25;8.18;;;;;;;;;;5041662;28;20115;-78
2023/10/20 00:18:30;;;;;;;11.13;8.02;;;;;;;;;;5057969;28;20052;-79
2023/10/20 00:20:56;;;;;;;12.70;8.48;;;;;;;;;;5055586;28;20021;-79
2023/10/20 00:23:21;;;;;;;12.00;8.05;;;;;;;;;;5058172;28;20037;-79
2023/10/20 00:25:46;;;;;;;12.85;8.00;;;;;;;;;;5061026;28;20028;-78
2023/10/20 00:28:12;;;;;;;13.10;7.93;;;;;;;;;;5057125;28;20032;-79
2023/10/20 00:30:41;;;;;;;10.68;8.25;;;;;;;;;;5061398;28;20017;-79
2023/10/20 00:33:07;;;;;;;13.90;8.35;;;;;;;;;;5057544;28;20121;-78
2023/10/20 00:35:32;;;;;;;10.40;8.00;;;;;;;;;;5059800;28;20070;-78
2023/10/20 00:37:58;;;;;;;10.65;8.10;;;;;;;;;;5042168;28;20028;-78
2023/10/20 00:40:24;;;;;;;11.45;9.05;;;;;;;;;;5040696;28;20169;-79
2023/10/20 00:42:50;;;;;;;11.90;8.63;;;;;;;;;;5046324;28;20127;-76
2023/10/20 00:45:15;;;;;;;13.07;8.45;;;;;;;;;;5059889;28;20086;-77
2023/10/20 00:47:44;;;;;;;13.65;8.52;;;;;;;;;;5059457;28;20024;-79
2023/10/20 00:50:13;;;;;;;12.50;8.65;;;;;;;;;;5059631;28;20093;-77
2023/10/20 00:52:42;;;;;;;12.40;8.10;;;;;;;;;;5060036;28;20464;-81
2023/10/20 00:55:08;;;;;;;13.77;8.05;;;;;;;;;;5047406;28;20069;-81
2023/10/20 00:57:38;;;;;;;12.38;8.90;;;;;;;;;;5048453;28;20115;-82
2023/10/20 01:00:04;;;;;;;12.00;8.05;;;;;;;;;;5063140;28;20032;-81
2023/10/20 01:02:30;;;;;;;13.07;8.70;;;;;;;;;;5066220;28;20029;-81
2023/10/20 01:04:57;;;;;;;10.73;7.90;;;;;;;;;;5070102;28;20025;-81
2023/10/20 01:07:24;;;;;;;11.32;8.30;;;;;;;;;;5067670;28;20032;-81
2023/10/20 01:09:50;;;;;;;11.45;8.82;;;;;;;;;;5064830;28;20039;-81
2023/10/20 01:12:15;;;;;;;10.85;8.13;;;;;;;;;;5051247;28;20099;-81
2023/10/20 01:14:40;;;;;;;12.15;8.65;;;;;;;;;;5047525;28;20491;-81
2023/10/20 01:17:06;;;;;;;12.68;8.50;;;;;;;;;;5072633;28;20028;-81
2023/10/20 01:19:32;;;;;;;11.43;8.57;;;;;;;;;;5045217;28;20028;-81
2023/10/20 01:21:57;;;;;;;12.35;9.10;;;;;;;;;;5046460;28;20023;-81
2023/10/20 01:24:22;;;;;;;13.07;9.65;;;;;;;;;;5067305;28;20384;-84
2023/10/20 01:26:48;;;;;;;12.45;9.55;;;;;;;;;;5033214;28;21192;-85
2023/10/20 01:29:13;;;;;;;11.95;9.15;;;;;;;;;;5046599;28;20021;-86
2023/10/20 01:31:39;;;;;;;14.35;10.07;;;;;;;;;;5064615;28;20677;-85
2023/10/20 01:34:05;;;;;;;14.25;9.90;;;;;;;;;;5051204;28;20059;-85
2023/10/20 01:36:30;;;;;;;12.45;9.38;;;;;;;;;;5061658;28;20028;-85
2023/10/20 01:38:56;;;;;;;12.45;9.45;;;;;;;;;;5050053;28;20024;-86
2023/10/20 01:41:22;;;;;;;13.05;9.48;;;;;;;;;;5047656;28;20468;-85
2023/10/20 01:43:47;;;;;;;15.23;9.43;;;;;;;;;;5061531;28;20030;-86
2023/10/20 01:46:13;;;;;;;12.68;9.65;;;;;;;;;;5044098;28;20033;-84
2023/10/20 01:48:38;;;;;;;11.30;9.63;;;;;;;;;;5056984;28;20032;-85
2023/10/20 01:51:03;;;;;;;12.80;9.52;;;;;;;;;;5042580;28;21023;-78
2023/10/20 01:53:29;;;;;;;11.95;9.32;;;;;;;;;;5061321;28;20028;-81
2023/10/20 01:55:54;;;;;;;14.30;9.60;;;;;;;;;;5060923;28;20036;-81
2023/10/20 01:58:20;;;;;;;13.98;9.77;;;;;;;;;;5050982;28;20021;-80
2023/10/20 02:00:52;;;;;;;15.48;9.73;;;;;;;;;;5044956;28;20037;-82
2023/10/20 02:03:19;;;;;;;13.23;9.90;;;;;;;;;;5065951;28;20063;-85
2023/10/20 02:05:45;;;;;;;14.05;10.60;;;;;;;;;;5066944;28;20810;-85
2023/10/20 02:08:11;;;;;;;15.00;10.48;;;;;;;;;;5065545;28;20035;-86
2023/10/20 02:10:37;;;;;;;15.00;11.35;;;;;;;;;;5050144;28;20886;-85
2023/10/20 02:13:03;;;;;;;14.57;10.77;;;;;;;;;;5068754;28;20029;-86
2023/10/20 02:15:29;;;;;;;17.40;11.93;;;;;;;;;;5066584;28;20025;-84
2023/10/20 02:17:55;;;;;;;15.00;12.20;;;;;;;;;;5070252;28;20052;-84
2023/10/20 02:20:25;;;;;;;14.75;11.35;;;;;;;;;;5049421;28;20444;-85
2023/10/20 02:22:52;;;;;;;16.27;12.20;;;;;;;;;;5057031;28;20020;-85
2023/10/20 02:25:19;;;;;;;16.45;12.18;;;;;;;;;;5047414;28;20020;-84
2023/10/20 02:27:45;;;;;;;15.55;12.75;;;;;;;;;;5062166;28;20468;-84
2023/10/20 02:30:13;;;;;;;15.88;12.85;;;;;;;;;;5056994;28;20039;-85
2023/10/20 02:32:38;;;;;;;18.70;12.30;;;;;;;;;;5069610;28;20081;-85
2023/10/20 02:35:04;;;;;;;14.43;11.70;;;;;;;;;;5053215;28;20028;-85
2023/10/20 02:37:30;;;;;;;16.55;12.45;;;;;;;;;;5055758;28;20028;-85
2023/10/20 02:39:55;;;;;;;17.05;11.93;;;;;;;;;;5044468;28;20061;-85
2023/10/20 02:42:20;;;;;;;14.52;11.50;;;;;;;;;;5071587;28;20389;-85
2023/10/20 02:44:46;;;;;;;14.93;12.15;;;;;;;;;;5044280;28;21680;-84
2023/10/20 02:47:11;;;;;;;13.93;10.90;;;;;;;;;;5045644;28;20387;-84
2023/10/20 02:49:36;;;;;;;15.55;12.02;;;;;;;;;;5044933;28;20016;-85
2023/10/20 02:52:02;;;;;;;14.07;11.15;;;;;;;;;;5044862;28;20039;-79
2023/10/20 02:54:27;;;;;;;16.90;11.85;;;;;;;;;;5060875;28;20027;-79
2023/10/20 02:56:55;;;;;;;14.95;11.82;;;;;;;;;;5063704;28;20020;-80
2023/10/20 02:59:21;;;;;;;13.57;11.75;;;;;;;;;;5044800;28;20021;-81
2023/10/20 03:01:46;;;;;;;14.68;11.68;;;;;;;;;;5065082;28;20039;-85
2023/10/20 03:04:11;;;;;;;15.38;11.93;;;;;;;;;;5050374;28;20509;-85
2023/10/20 03:06:37;;;;;;;15.02;12.35;;;;;;;;;;5064182;28;20050;-85
2023/10/20 03:09:03;;;;;;;15.40;11.90;;;;;;;;;;5053174;28;20032;-78
2023/10/20 03:11:28;;;;;;;16.27;12.07;;;;;;;;;;5074561;28;20028;-86
2023/10/20 03:13:53;;;;;;;14.05;11.65;;;;;;;;;;5064631;28;20028;-84
2023/10/20 03:16:19;;;;;;;15.93;12.30;;;;;;;;;;5067877;28;20468;-85
2023/10/20 03:18:44;;;;;;;17.42;12.95;;;;;;;;;;5064439;28;20036;-84
2023/10/20 03:21:10;;;;;;;14.57;11.80;;;;;;;;;;5049848;28;20487;-77
2023/10/20 03:23:36;;;;;;;16.23;12.68;;;;;;;;;;5054139;28;20173;-76
2023/10/20 03:26:02;;;;;;;15.88;12.48;;;;;;;;;;5049446;28;20036;-77
2023/10/20 03:28:28;;;;;;;14.80;12.65;;;;;;;;;;5048259;28;20441;-76
2023/10/20 03:30:53;;;;;;;15.82;13.27;;;;;;;;;;5066174;28;20095;-77
2023/10/20 03:33:19;;;;;;;19.08;13.43;;;;;;;;;;5047748;28;20086;-77
2023/10/20 03:35:45;;;;;;;17.63;13.40;;;;;;;;;;5042595;28;20608;-78
2023/10/20 03:38:11;;;;;;;17.58;13.43;;;;;;;;;;5061263;28;20043;-79
2023/10/20 03:40:41;;;;;;;16.55;13.23;;;;;;;;;;5061857;28;20551;-80
2023/10/20 03:43:08;;;;;;;17.10;13.23;;;;;;;;;;5039184;28;20481;-79
2023/10/20 03:45:41;;;;;;;16.05;12.82;;;;;;;;;;5047334;28;20117;-78
2023/10/20 03:48:09;;;;;;;18.23;14.20;;;;;;;;;;5062207;28;20024;-79
2023/10/20 03:50:36;;;;;;;18.33;14.32;;;;;;;;;;5063158;28;20016;-78
2023/10/20 03:53:02;;;;;;;19.20;13.65;;;;;;;;;;5057534;28;20106;-79
2023/10/20 03:55:27;;;;;;;19.20;14.38;;;;;;;;;;5060260;28;20028;-78
2023/10/20 03:57:52;;;;;;;17.20;14.20;;;;;;;;;;5041376;28;20025;-79
2023/10/20 04:00:18;;;;;;;22.55;14.80;;;;;;;;;;5056500;28;20028;-79
2023/10/20 04:02:47;;;;;;;18.70;14.70;;;;;;;;;;5043817;28;20111;-79
2023/10/20 04:05:16;;;;;;;16.90;13.73;;;;;;;;;;5064403;28;20485;-78
2023/10/20 04:07:41;;;;;;;19.70;15.00;;;;;;;;;;5065522;28;20046;-78
2023/10/20 04:10:07;;;;;;;16.33;13.00;;;;;;;;;;5068037;28;20032;-81
2023/10/20 04:12:33;;;;;;;19.02;14.20;;;;;;;;;;5055605;28;20025;-81
2023/10/20 04:14:58;;;;;;;18.58;14.43;;;;;;;;;;5068045;28;20043;-81
2023/10/20 04:17:24;;;;;;;19.05;13.52;;;;;;;;;;5071048;28;20080;-81
2023/10/20 04:19:49;;;;;;;17.88;13.85;;;;;;;;;;5068612;28;20494;-80
2023/10/20 04:22:16;;;;;;;18.17;14.50;;;;;;;;;;5070420;28;20020;-77
2023/10/20 04:24:42;;;;;;;18.17;14.15;;;;;;;;;;5070519;28;20476;-77
2023/10/20 04:27:21;;;;;;;20.65;15.32;;;;;;;;;;5049654;28;20119;-79
2023/10/20 04:53:55;;;;;;;19.02;14.30;;;;;;;;;;5064352;28;20031;-81
2023/10/20 04:56:34;;;;;;;18.17;14.65;;;;;;;;;;5046919;28;20054;-81
2023/10/20 04:59:44;;;;;;;18.88;14.23;;;;;;;;;;5063825;28;20025;-81
2023/10/20 05:01:49;;;;;;;19.83;13.95;;;;;;;;;;5049446;28;20036;-80
2023/10/20 05:04:17;;;;;;;18.20;14.35;;;;;;;;;;5050386;28;20144;-81
2023/10/20 05:06:43;;;;;;;19.83;14.77;;;;;;;;;;5068472;28;20024;-81
2023/10/20 05:09:12;;;;;;;17.95;14.02;;;;;;;;;;5067929;28;20361;-81
2023/10/20 05:11:39;;;;;;;18.45;13.65;;;;;;;;;;5066257;28;20059;-81
2023/10/20 05:14:04;;;;;;;18.90;14.30;;;;;;;;;;5066817;28;20098;-81
2023/10/20 05:16:33;;;;;;;19.75;14.82;;;;;;;;;;5066461;28;20024;-81
2023/10/20 05:19:00;;;;;;;19.25;15.23;;;;;;;;;;5067635;28;20029;-80
2023/10/20 05:21:26;;;;;;;18.85;14.73;;;;;;;;;;5062863;28;20024;-81
2023/10/20 05:23:51;;;;;;;18.67;14.70;;;;;;;;;;5068655;28;20066;-81
2023/10/20 05:26:17;;;;;;;20.23;15.52;;;;;;;;;;5064515;28;20066;-81
2023/10/20 05:28:42;;;;;;;18.55;14.63;;;;;;;;;;5065755;28;20071;-81
2023/10/20 05:31:07;;;;;;;20.65;14.48;;;;;;;;;;5047203;28;20093;-81
2023/10/20 05:33:33;;;;;;;20.98;14.90;;;;;;;;;;5048471;28;20043;-77
2023/10/20 05:36:03;;;;;;;20.08;14.35;;;;;;;;;;5048469;28;20048;-77
2023/10/20 05:38:28;;;;;;;22.08;15.27;;;;;;;;;;5052731;28;20047;-77
2023/10/20 05:40:58;;;;;;;21.27;15.18;;;;;;;;;;5045345;28;20471;-78
2023/10/20 05:43:25;;;;;;;20.08;14.43;;;;;;;;;;5026179;28;20029;-78
2023/10/20 05:45:51;;;;;;;21.23;14.80;;;;;;;;;;5061078;28;20484;-77
2023/10/20 05:48:16;;;;;;;19.83;15.00;;;;;;;;;;5047902;28;20047;-77
2023/10/20 05:50:42;;;;;;;23.08;14.57;;;;;;;;;;5048516;28;20017;-77
2023/10/20 05:53:07;;;;;;;19.50;13.95;;;;;;;;;;5064098;28;20473;-77
2023/10/20 05:55:33;;;;;;;23.55;14.68;;;;;;;;;;5063757;28;20032;-77
2023/10/20 05:58:00;;;;;;;21.95;14.63;;;;;;;;;;5048455;28;20028;-77
2023/10/20 06:00:25;;;;;;;20.08;14.25;;;;;;;;;;5046010;28;20024;-79
2023/10/20 06:02:51;;;;;;;18.75;13.35;;;;;;;;;;5064885;28;20073;-85
2023/10/20 06:05:16;;;;;;;19.58;13.68;;;;;;;;;;5062284;28;20111;-84
2023/10/20 06:07:43;;;;;;;19.55;13.63;;;;;;;;;;5060775;28;20021;-85
2023/10/20 06:10:08;;;;;;;19.77;13.50;;;;;;;;;;5059551;28;20480;-83
2023/10/20 06:12:34;;;;;;;21.08;13.05;;;;;;;;;;5040932;28;20050;-82
2023/10/20 06:14:59;;;;;;;18.27;12.60;;;;;;;;;;5060631;28;20606;-83
2023/10/20 06:17:25;;;;;;;17.67;12.18;;;;;;;;;;5041552;28;20119;-85
2023/10/20 06:19:50;;;;;;;16.85;12.10;;;;;;;;;;5041010;28;20032;-85
2023/10/20 06:22:16;;;;;;;16.35;10.80;;;;;;;;;;5063208;28;20427;-84
2023/10/20 06:24:41;;;;;;;17.60;11.45;;;;;;;;;;5062105;28;20032;-82
2023/10/20 06:27:07;;;;;;;17.35;11.43;;;;;;;;;;5046168;28;20021;-83
2023/10/20 06:31:58;;;;;;;16.02;11.45;;;;;;;;;;5060495;28;20036;-85
2023/10/20 06:34:24;;;;;;;18.58;10.93;;;;;;;;;;5040668;28;21964;-86
2023/10/20 06:36:59;;;;;;;13.38;10.18;;;;;;;;;;5030119;28;20059;-85
2023/10/20 06:39:26;;;;;;;15.38;10.88;;;;;;;;;;5061726;28;20034;-84
2023/10/20 06:41:51;;;;;;;14.55;10.25;;;;;;;;;;5050138;28;20040;-77
2023/10/20 06:44:17;;;;;;;14.63;10.35;;;;;;;;;;5064388;28;20032;-77
2023/10/20 06:46:42;;;;;;;15.50;10.10;;;;;;;;;;5029179;28;20047;-77
2023/10/20 06:49:08;;;;;;;12.82;9.82;;;;;;;;;;5009326;28;20031;-77
2023/10/20 06:51:33;;;;;;;16.67;10.57;;;;;;;;;;5029959;28;20077;-77
2023/10/20 06:53:58;;;;;;;15.02;10.30;;;;;;;;;;5044063;28;20032;-78
2023/10/20 06:56:24;;;;;;;15.70;11.25;;;;;;;;;;5065466;28;20036;-77
2023/10/20 06:58:49;;;;;;;14.40;10.45;;;;;;;;;;5018895;28;20178;-78
2023/10/20 07:01:15;;;;;;;14.10;10.13;;;;;;;;;;5044459;28;20138;-77
2023/10/20 07:03:40;;;;;;;14.90;10.35;;;;;;;;;;5043973;28;20543;-77
2023/10/20 07:06:10;;;;;;;15.63;10.48;;;;;;;;;;5043747;28;20531;-77
2023/10/20 07:08:36;;;;;;;14.98;10.45;;;;;;;;;;5027671;28;20032;-77
2023/10/20 07:11:03;;;;;;;13.80;9.98;;;;;;;;;;5042422;28;20025;-78
2023/10/20 07:13:34;;;;;;;14.60;10.18;;;;;;;;;;5043018;28;20055;-78
2023/10/20 07:16:00;;;;;;;14.13;9.38;;;;;;;;;;5039907;28;20041;-78
2023/10/20 07:18:26;;;;;;;13.57;9.30;;;;;;;;;;5058769;28;20137;-78
2023/10/20 07:20:52;;;;;;;13.73;9.00;;;;;;;;;;5039579;28;20472;-79
2023/10/20 07:23:18;;;;;;;13.82;9.48;;;;;;;;;;5043312;28;20123;-80
2023/10/20 07:25:43;;;;;;;12.35;8.20;;;;;;;;;;5060282;28;20122;-80
2023/10/20 07:28:09;;;;;;;14.05;8.77;;;;;;;;;;5041060;28;20459;-79
2023/10/20 07:30:35;;;;;;;14.90;9.73;;;;;;;;;;5025615;28;20029;-80
2023/10/20 07:33:03;;;;;;;13.77;8.95;;;;;;;;;;5056468;28;20044;-80
2023/10/20 07:35:28;;;;;;;12.52;8.80;;;;;;;;;;5043244;28;20514;-80
2023/10/20 07:37:54;;;;;;;12.50;8.13;;;;;;;;;;5026953;28;20041;-80
2023/10/20 07:40:19;;;;;;;13.93;8.77;;;;;;;;;;5043522;28;20081;-80
2023/10/20 07:42:45;;;;;;;11.75;7.78;;;;;;;;;;5041373;28;20051;-80
2023/10/20 07:45:11;;;;;;;12.75;8.65;;;;;;;;;;5028915;28;20495;-80
2023/10/20 07:47:37;;;;;;;12.73;8.52;;;;;;;;;;5063956;28;20024;-80
2023/10/20 07:50:03;;;;;;;11.70;7.55;;;;;;;;;;5047681;28;20040;-80
2023/10/20 07:52:29;;;;;;;11.57;7.82;;;;;;;;;;5060536;28;20993;-79
2023/10/20 07:54:54;;;;;;;11.68;8.13;;;;;;;;;;5028346;28;20122;-79
2023/10/20 07:57:20;;;;;;;12.07;7.78;;;;;;;;;;5042746;28;20078;-79
2023/10/20 07:59:46;;;;;;;10.40;7.20;;;;;;;;;;5028421;28;20109;-79
2023/10/20 08:02:12;;;;;;;11.85;7.10;;;;;;;;;;5059884;28;20027;-80
2023/10/20 08:04:38;;;;;;;8.80;6.35;;;;;;;;;;5047144;28;20040;-79
2023/10/20 08:07:04;;;;;;;11.75;6.60;;;;;;;;;;5023968;28;20062;-79
2023/10/20 08:09:30;;;;;;;14.40;7.30;;;;;;;;;;5045687;28;20028;-79
2023/10/20 08:11:56;;;;;;;9.98;6.15;;;;;;;;;;5042865;28;20044;-79
2023/10/20 08:14:23;;;;;;;9.75;6.40;;;;;;;;;;5039156;28;20024;-79
2023/10/20 08:16:49;;;;;;;8.35;5.90;;;;;;;;;;5042949;28;20147;-79
2023/10/20 08:19:15;;;;;;;9.43;6.68;;;;;;;;;;5039428;28;20099;-80
2023/10/20 08:21:42;;;;;;;8.60;5.53;;;;;;;;;;5040830;28;20036;-79
2023/10/20 08:24:08;;;;;;;7.63;5.18;;;;;;;;;;5027530;28;20025;-79
2023/10/20 08:26:33;;;;;;;6.80;4.90;;;;;;;;;;5044513;28;20038;-80
2023/10/20 08:28:59;;;;;;;7.85;5.18;;;;;;;;;;5044600;28;20047;-79
2023/10/20 08:31:25;;;;;;;8.20;5.47;;;;;;;;;;5041453;28;20051;-79
2023/10/20 08:33:52;;;;;;;8.48;5.10;;;;;;;;;;5063398;28;20093;-78
2023/10/20 08:36:22;;;;;;;7.55;4.63;;;;;;;;;;5041480;28;20025;-79
2023/10/20 08:38:49;;;;;;;6.90;4.53;;;;;;;;;;5056628;28;20989;-79
2023/10/20 08:41:21;;;;;;;6.75;4.40;;;;;;;;;;5019604;28;20492;-79
2023/10/20 08:43:48;;;;;;;5.63;4.00;;;;;;;;;;5038907;28;20029;-77
2023/10/20 08:46:15;;;;;;;7.90;4.25;;;;;;;;;;5021917;28;20035;-76
2023/10/20 08:48:43;;;;;;;5.50;3.53;;;;;;;;;;5041567;28;20028;-77
2023/10/20 08:51:14;;;;;;;5.70;3.70;;;;;;;;;;5041932;28;20420;-76
2023/10/20 08:53:41;;;;;;;5.85;3.60;;;;;;;;;;5032679;28;20160;-78
2023/10/20 08:56:08;;;;;;;5.18;3.45;;;;;;;;;;5039137;28;20044;-78
2023/10/20 08:58:35;;;;;;;4.93;3.25;;;;;;;;;;5037934;28;20540;-76
2023/10/20 09:01:01;;;;;;;5.60;3.00;;;;;;;;;;5012003;28;20036;-76
2023/10/20 09:03:27;;;;;;;5.60;3.47;;;;;;;;;;5035990;28;20609;-77
2023/10/20 09:06:01;;;;;;;4.72;2.90;;;;;;;;;;5052530;28;20033;-79
2023/10/20 09:08:27;;;;;;;6.55;3.13;;;;;;;;;;5058559;28;20062;-76
2023/10/20 09:10:52;;;;;;;4.22;2.50;;;;;;;;;;5046993;28;20028;-77
2023/10/20 09:13:18;;;;;;;4.30;2.63;;;;;;;;;;5007124;28;20374;-79
2023/10/20 09:15:43;;;;;;;4.65;2.40;;;;;;;;;;5033588;28;20040;-78
2023/10/20 09:18:09;;;;;;;3.53;2.40;;;;;;;;;;5036219;28;20166;-79
2023/10/20 09:20:35;;;;;;;5.28;2.30;;;;;;;;;;5050072;28;20134;-79
2023/10/20 09:23:06;;;;;;;4.30;2.05;;;;;;;;;;5041301;28;20047;-78
2023/10/20 09:25:33;;;;;;;3.67;1.65;;;;;;;;;;5041207;28;20378;-79
2023/10/20 09:27:58;;;;;;;3.80;1.83;;;;;;;;;;5029539;28;20144;-79
2023/10/20 09:30:24;;;;;;;2.72;1.70;;;;;;;;;;5051066;28;20476;-79
2023/10/20 09:32:50;;;;;;;2.83;1.60;;;;;;;;;;5051869;28;20548;-79
2023/10/20 09:35:15;;;;;;;2.97;1.90;;;;;;;;;;5030178;28;20093;-79
2023/10/20 09:37:41;;;;;;;3.30;1.77;;;;;;;;;;5034862;28;20024;-80
2023/10/20 09:40:08;;;;;;;3.42;1.80;;;;;;;;;;5050219;28;20021;-79
2023/10/20 09:42:49;;;;;;;2.38;1.38;;;;;;;;;;5022262;28;20037;-76
2023/10/20 09:45:16;;;;;;;2.42;1.50;;;;;;;;;;5052605;28;20664;-80
2023/10/20 09:47:44;;;;;;;2.08;1.50;;;;;;;;;;5028204;28;20455;-77
2023/10/20 09:50:11;;;;;;;3.70;1.20;;;;;;;;;;5051289;28;20020;-77
2023/10/20 09:52:40;;;;;;;2.67;1.40;;;;;;;;;;5038143;28;20086;-81
2023/10/20 09:55:07;;;;;;;2.65;1.48;;;;;;;;;;5044810;28;20075;-79
2023/10/20 09:57:33;;;;;;;2.55;1.50;;;;;;;;;;5023441;28;20056;-80
2023/10/20 10:00:04;;;;;;;3.00;1.30;;;;;;;;;;5008313;28;20475;-81
2023/10/20 10:02:31;;;;;;;2.00;1.30;;;;;;;;;;5017433;28;20021;-80
2023/10/20 10:04:57;;;;;;;2.05;1.33;;;;;;;;;;5047512;28;20785;-81
2023/10/20 10:07:41;;;;;;;1.88;1.30;;;;;;;;;;5020523;28;20468;-80
2023/10/20 10:10:18;;;;;;;2.33;1.33;;;;;;;;;;5042018;28;20125;-81
2023/10/20 10:12:57;;;;;;;2.45;1.48;;;;;;;;;;5021437;28;21672;-80
2023/10/20 10:15:37;;;;;;;2.13;1.30;;;;;;;;;;5047884;28;20029;-80
2023/10/20 10:18:17;;;;;;;2.30;1.40;;;;;;;;;;5025177;28;20064;-79
2023/10/20 10:20:52;;;;;;;3.42;1.40;;;;;;;;;;5049470;28;20336;-80
2023/10/20 10:23:27;;;;;;;2.38;1.10;;;;;;;;;;5013612;28;20036;-80
2023/10/20 10:25:53;;;;;;;1.83;1.15;;;;;;;;;;5040724;28;20753;-78
2023/10/20 10:28:20;;;;;;;1.85;1.17;;;;;;;;;;5036665;28;20785;-80
2023/10/20 10:30:52;;;;;;;1.75;1.15;;;;;;;;;;5050584;28;20510;-80
2023/10/20 10:33:24;;;;;;;2.13;1.30;;;;;;;;;;5047584;28;20758;-80
2023/10/20 10:36:04;;;;;;;2.22;1.25;;;;;;;;;;5006589;28;20559;-80
2023/10/20 10:38:30;;;;;;;1.80;1.10;;;;;;;;;;5048960;28;20029;-79
2023/10/20 10:40:55;;;;;;;2.10;1.27;;;;;;;;;;5034083;28;20028;-78
2023/10/20 10:43:21;;;;;;;3.28;1.08;;;;;;;;;;5013265;28;20054;-79
2023/10/20 10:45:53;;;;;;;1.77;1.13;;;;;;;;;;5046982;28;20750;-79
2023/10/20 10:48:24;;;;;;;2.10;1.13;;;;;;;;;;5037159;28;20534;-78
2023/10/20 10:50:51;;;;;;;1.63;1.23;;;;;;;;;;5034456;28;20111;-79
2023/10/20 10:53:17;;;;;;;2.83;1.30;;;;;;;;;;5045085;28;20119;-78
2023/10/20 10:55:43;;;;;;;1.55;1.00;;;;;;;;;;5046549;28;20513;-79
2023/10/20 10:58:13;;;;;;;2.00;1.20;;;;;;;;;;5053623;28;20036;-78
2023/10/20 11:00:40;;;;;;;1.73;1.13;;;;;;;;;;5017743;28;20828;-79
2023/10/20 11:03:07;;;;;;;2.38;1.23;;;;;;;;;;5027318;28;20036;-78
2023/10/20 11:05:33;;;;;;;2.00;1.20;;;;;;;;;;5032131;28;20093;-78
2023/10/20 11:08:03;;;;;;;3.60;1.40;;;;;;;;;;5030134;28;20543;-78
2023/10/20 11:10:42;;;;;;;1.80;1.20;;;;;;;;;;5045802;28;20020;-79
2023/10/20 11:13:13;;;;;;;1.40;1.00;;;;;;;;;;5016470;28;20508;-77
2023/10/20 11:15:40;;;;;;;1.85;1.20;;;;;;;;;;5051741;28;20067;-78
2023/10/20 11:18:07;;;;;;;1.52;1.10;;;;;;;;;;5053965;28;20556;-77
2023/10/20 11:20:38;;;;;;;2.05;1.30;;;;;;;;;;5052718;28;20187;-76
2023/10/20 11:23:07;;;;;;;1.80;1.20;;;;;;;;;;5050818;28;20028;-78
2023/10/20 11:25:33;;;;;;;1.92;1.30;;;;;;;;;;5036850;28;20035;-77
2023/10/20 11:27:58;;;;;;;1.67;1.17;;;;;;;;;;5033604;28;20090;-77
2023/10/20 11:30:31;;;;;;;1.52;1.20;;;;;;;;;;5024532;28;20044;-77
2023/10/20 11:32:57;;;;;;;1.98;1.20;;;;;;;;;;5048638;28;21111;-77
2023/10/20 11:35:26;;;;;;;2.20;1.23;;;;;;;;;;5051435;28;20488;-78
2023/10/20 11:37:56;;;;;;;1.60;1.20;;;;;;;;;;5034911;28;20025;-77
2023/10/20 11:40:23;;;;;;;2.20;1.30;;;;;;;;;;5049621;28;20095;-77
2023/10/20 11:42:48;;;;;;;1.90;1.10;;;;;;;;;;5048629;28;21724;-77
2023/10/20 11:45:15;;;;;;;1.75;1.20;;;;;;;;;;5053948;28;20085;-77
2023/10/20 11:47:41;;;;;;;1.40;1.00;;;;;;;;;;5020054;28;20095;-77
2023/10/20 11:50:19;;;;;;;2.38;1.10;;;;;;;;;;5033390;28;20496;-77
2023/10/20 11:52:45;;;;;;;1.88;1.20;;;;;;;;;;5027545;28;20038;-77
2023/10/20 11:55:11;;;;;;;2.03;1.20;;;;;;;;;;5017041;28;20881;-77
2023/10/20 11:57:40;;;;;;;1.95;1.42;;;;;;;;;;5052524;28;20500;-77
2023/10/20 12:00:09;;;;;;;1.90;1.30;;;;;;;;;;5052386;28;20056;-77
2023/10/20 12:02:38;;;;;;;1.45;1.13;;;;;;;;;;5026693;28;20401;-78
2023/10/20 12:05:08;;;;;;;1.63;1.20;;;;;;;;;;5050523;28;20050;-78
2023/10/20 12:07:34;;;;;;;2.80;1.52;;;;;;;;;;5034248;28;20123;-77
2023/10/20 12:10:00;;;;;;;2.00;1.27;;;;;;;;;;5053151;28;20055;-77
2023/10/20 12:12:25;;;;;;;2.30;1.33;;;;;;;;;;5025111;28;20187;-80
2023/10/20 12:14:51;;;;;;;1.90;1.40;;;;;;;;;;5030054;28;20052;-77
2023/10/20 12:17:17;;;;;;;3.42;1.35;;;;;;;;;;5050578;28;20116;-78
2023/10/20 12:19:43;;;;;;;2.55;1.27;;;;;;;;;;5054840;28;20048;-78
2023/10/20 12:22:08;;;;;;;2.75;1.50;;;;;;;;;;5028519;28;20033;-79
2023/10/20 12:24:35;;;;;;;1.77;1.30;;;;;;;;;;5030045;28;20060;-78
2023/10/20 12:27:01;;;;;;;2.97;1.48;;;;;;;;;;5017573;28;20051;-79
2023/10/20 12:29:26;;;;;;;2.45;1.38;;;;;;;;;;5049391;28;20524;-77
2023/10/20 12:31:52;;;;;;;2.42;1.40;;;;;;;;;;5057983;28;20425;-82
2023/10/20 12:34:20;;;;;;;2.20;1.25;;;;;;;;;;5050023;28;20138;-79
2023/10/20 12:36:48;;;;;;;1.50;1.23;;;;;;;;;;5059700;28;20120;-81
2023/10/20 12:39:17;;;;;;;2.33;1.10;;;;;;;;;;5035187;28;20070;-79
2023/10/20 12:41:46;;;;;;;2.38;1.50;;;;;;;;;;5021142;28;20481;-80
2023/10/20 12:44:12;;;;;;;2.10;1.20;;;;;;;;;;5053570;28;20056;-80
2023/10/20 12:46:38;;;;;;;2.08;1.10;;;;;;;;;;5040764;28;20424;-81
2023/10/20 12:49:06;;;;;;;1.88;1.20;;;;;;;;;;5059566;28;20135;-81
2023/10/20 12:51:32;;;;;;;2.20;1.33;;;;;;;;;;5057215;28;20036;-82
2023/10/20 12:53:57;;;;;;;2.53;1.30;;;;;;;;;;5064331;28;20032;-80
2023/10/20 12:56:23;;;;;;;1.38;1.10;;;;;;;;;;5040397;28;20035;-79
2023/10/20 12:58:48;;;;;;;1.67;1.08;;;;;;;;;;5010031;28;20477;-79
2023/10/20 13:01:13;;;;;;;3.08;1.20;;;;;;;;;;5024520;28;20044;-81
2023/10/20 13:03:39;;;;;;;1.90;1.20;;;;;;;;;;5019003;28;20029;-79
2023/10/20 13:06:06;;;;;;;1.50;1.00;;;;;;;;;;5011555;28;20068;-80
2023/10/20 13:08:32;;;;;;;1.58;1.00;;;;;;;;;;5061614;28;20043;-81
2023/10/20 13:10:57;;;;;;;1.30;1.00;;;;;;;;;;5015191;28;20669;-80
2023/10/20 13:13:23;;;;;;;2.25;1.30;;;;;;;;;;5052938;28;20086;-81
2023/10/20 13:15:50;;;;;;;1.52;1.10;;;;;;;;;;5039547;28;20036;-81
2023/10/20 13:18:15;;;;;;;1.55;0.98;;;;;;;;;;5051767;28;20041;-80
2023/10/20 13:20:41;;;;;;;3.00;0.90;;;;;;;;;;5036687;28;20773;-81
2023/10/20 13:23:07;;;;;;;2.75;1.08;;;;;;;;;;5027729;28;20094;-81
2023/10/20 13:25:36;;;;;;;1.02;0.80;;;;;;;;;;5054610;28;20037;-79
2023/10/20 13:28:03;;;;;;;1.27;0.80;;;;;;;;;;5053420;28;20036;-80
2023/10/20 13:30:29;;;;;;;1.95;0.90;;;;;;;;;;5045719;28;20024;-81
2023/10/20 13:32:54;;;;;;;1.13;0.80;;;;;;;;;;5050487;28;20082;-78
2023/10/20 13:35:21;;;;;;;1.40;0.80;;;;;;;;;;5025263;28;20131;-78
2023/10/20 13:37:47;;;;;;;1.25;0.80;;;;;;;;;;5037014;28;20036;-78
2023/10/20 13:40:12;;;;;;;1.77;0.85;;;;;;;;;;5051551;28;21530;-79
2023/10/20 13:42:38;;;;;;;1.50;0.88;;;;;;;;;;5052890;28;20078;-79
2023/10/20 13:45:04;;;;;;;1.02;0.70;;;;;;;;;;5029471;28;20041;-79
2023/10/20 13:47:30;;;;;;;2.03;0.95;;;;;;;;;;5054239;28;20043;-79
2023/10/20 13:49:56;;;;;;;1.50;0.80;;;;;;;;;;5037429;28;20036;-79
2023/10/20 13:52:22;;;;;;;2.03;0.95;;;;;;;;;;5034480;28;20107;-80
2023/10/20 13:54:47;;;;;;;1.75;0.95;;;;;;;;;;5013108;28;20073;-79
2023/10/20 13:57:13;;;;;;;2.97;1.10;;;;;;;;;;5028051;28;20040;-79
2023/10/20 13:59:39;;;;;;;3.65;0.90;;;;;;;;;;5049725;28;20033;-79
2023/10/20 14:02:05;;;;;;;1.60;1.20;;;;;;;;;;5039245;28;20036;-78
2023/10/20 14:04:30;;;;;;;1.58;1.17;;;;;;;;;;5028510;28;20097;-79
2023/10/20 14:06:55;;;;;;;3.25;1.40;;;;;;;;;;5031443;28;20036;-79
2023/10/20 14:09:21;;;;;;;3.55;1.30;;;;;;;;;;5014552;28;20036;-79
2023/10/20 14:11:47;;;;;;;2.90;1.00;;;;;;;;;;4996408;28;20052;-80
2023/10/20 14:14:12;;;;;;;2.33;1.45;;;;;;;;;;5011349;28;20029;-79
2023/10/20 14:16:38;;;;;;;1.92;1.20;;;;;;;;;;5030114;28;20036;-79
2023/10/20 14:19:04;;;;;;;2.45;1.20;;;;;;;;;;5033224;28;20045;-79
2023/10/20 14:21:30;;;;;;;1.15;0.93;;;;;;;;;;5024832;28;20040;-78
2023/10/20 14:23:56;;;;;;;2.17;1.17;;;;;;;;;;5045625;28;20036;-79
2023/10/20 14:26:21;;;;;;;1.70;1.17;;;;;;;;;;5032826;28;20032;-79
2023/10/20 14:28:46;;;;;;;2.40;1.15;;;;;;;;;;5016289;28;20033;-79
2023/10/20 14:31:14;;;;;;;1.50;0.88;;;;;;;;;;5027888;28;20079;-79
2023/10/20 14:33:39;;;;;;;1.27;0.98;;;;;;;;;;5030279;28;20056;-79
2023/10/20 14:36:10;;;;;;;2.10;1.17;;;;;;;;;;5041188;28;20064;-79
2023/10/20 14:38:36;;;;;;;1.50;1.17;;;;;;;;;;5030453;28;20400;-79
2023/10/20 14:41:06;;;;;;;1.55;1.10;;;;;;;;;;5029956;28;20028;-78
2023/10/20 14:43:36;;;;;;;1.48;1.17;;;;;;;;;;5033377;28;20028;-79
2023/10/20 14:46:03;;;;;;;2.20;1.35;;;;;;;;;;5026795;28;20028;-79
2023/10/20 14:48:29;;;;;;;2.40;1.40;;;;;;;;;;5042885;28;20122;-79
2023/10/20 14:50:55;;;;;;;1.48;1.10;;;;;;;;;;5029617;28;20221;-81
2023/10/20 14:53:21;;;;;;;2.85;1.40;;;;;;;;;;5047468;28;20044;-80
2023/10/20 14:55:46;;;;;;;2.70;1.60;;;;;;;;;;5053392;28;20032;-79